Official results for 2017 Vic State Series 2 Sprint Double - Yarra Valley, race 1

Event informationShow result list by organisationPress result listUpload routePrint

Name: 2017 Vic State Series 2 Sprint Double - Yarra Valley
Organiser: Dandenong Ranges Orienteering Club
Date: Sunday 21 May 2017

Race 1Race 2Race 2 (overall)

OV Course M1

3 200 m, 28 starting competitors
PlacNameOrganisationTimeDiffKm time
1Brodie NankervisEV T12:283:53
2Ian LawfordAO A12:29+0:013:54
3Todd NeveMF V12:41+0:133:57
4Bruce ArthurMF V13:24+0:564:11
5Mikkel Kaae-NielsenMF V13:31+1:034:13
6Simon RouseDR V14:35+2:074:33
7Scott GavensBK V14:53+2:254:39
8Jim RussellBG V15:25+2:574:49
9Peter CollinsBK V15:49+3:214:56
10Warwick WilliamsBG V16:59+4:315:18
11Blair TrewinYV V17:01+4:335:19
12Carl DalheimMF V17:08+4:405:21
13Andrew RowanBK V17:15+4:475:23
14Lachlan CherryBG V17:17+4:495:24
15Geoff LawfordEU V17:25+4:575:26
16Nick MaddockDR V17:43+5:155:32
17Martin IllumOV17:55+5:275:35
18Warwick DavisTK V18:33+6:055:47
19Max DalheimMF V18:34+6:065:48
20Ryan DaviesDR V19:21+6:536:02
21Jim GlaspoleNE V20:23+7:556:22
22Martin KozmaBK V21:54+9:266:50
23Vic SedunaryBK V22:36+10:087:03
24Andrew HunterBK V23:26+10:587:19
25Ron ScholesYV V23:29+11:017:20
26Lachlan KentBG V23:39+11:117:23
27Jonathan SutcliffeBK V24:12+11:447:33
28Eric LouwDR V34:42+22:1410:50

OV Course M2

3 200 m, 16 starting competitors
PlacNameOrganisationTimeDiffKm time
1Aston KeyMF V13:024:04
2Ted van GeldermalsenYV V15:33+2:314:51
3Brody McCarthyYV V15:41+2:394:54
4Glenn JamesBG V15:43+2:414:54
5Martin SteerDR V15:58+2:564:59
6Ian DoddDR V16:43+3:415:13
7Chris NorwoodEU V17:04+4:025:20
8Michael LoughnanBG V19:01+5:595:56
9Cormac McCarthyYV V19:42+6:406:09
10Glen WhiteYV V19:53+6:516:12
11Roch PrendergastEU V20:54+7:526:31
12Bruce PatersonAR V21:24+8:226:41
13Neil BarrBG V21:56+8:546:51
14Don CherryBG V23:46+10:447:25
Andras BogdanovitsDR Vmispunched
David JaffeMF Vmispunched

OV Course W2

3 200 m, 14 starting competitors
PlacNameOrganisationTimeDiffKm time
1Belinda LawfordAO A14:524:38
2Natasha KeyMF V14:58+0:064:40
3Asha SteerDR V15:49+0:574:56
4Lanita SteerDR V16:43+1:515:13
5Clare BrownridgeBG V17:39+2:475:30
6Jayne SalesMF V19:20+4:286:02
7Jenny BourneEU V20:26+5:346:23
8Thorlene EgertonBK V20:28+5:366:23
9Rebecca ShawBK V23:13+8:217:15
10Kerryn SearleBG V24:51+9:597:45
11Josie YeatmanNE V25:28+10:367:57
12Margaret KerteszBG V47:19+32:2714:47
13Sonia AliAL T52:18+37:2616:20
Amy BuckerfieldAL Tmispunched

OV Course M3

2 700 m, 7 starting competitors
PlacNameOrganisationTimeDiffKm time
1Stephen CollinsBK V16:166:01
2Geoff ArmstrongNE V18:07+1:516:42
3David KnightBK V19:25+3:097:11
4Ross RunnallsBG V19:41+3:257:17
5Stuart McWilliamDR V21:10+4:547:50
6Campbell JamesBG V24:34+8:189:05
7Greg TamblynBK V25:15+8:599:21

OV Course W3

2 700 m, 7 starting competitors
PlacNameOrganisationTimeDiffKm time
1Ilka BarrBG V16:516:14
2Carolyn JacksonBK V17:12+0:216:22
3Heather ODonnellYV V17:27+0:366:27
4Janine SteerDR V18:51+2:006:58
5Karina CherryBG V22:15+5:248:14
6Denise PikeDR V24:58+8:079:14
7Debbie DoddDR V31:27+14:3611:38

OV Course M4

2 700 m, 12 starting competitors
PlacNameOrganisationTimeDiffKm time
1Mark BaxterNE V18:366:53
2Dennis MewsBK V19:08+0:327:05
3Bill VandendoolBK V19:13+0:377:07
4Aidan MayallBK V20:13+1:377:29
5Matthew KingBK V21:04+2:287:48
6Richard SallmannOV22:31+3:558:20
7Phil TorodeDR V23:07+4:318:33
8Murray HannaBK V24:58+6:229:14
9Ewen TempletonBK V25:11+6:359:19
10Geoff AdamsBK V25:21+6:459:23
11Peter GroverDR V27:36+9:0010:13
12Michael HubbertBK V38:58+20:2214:25

OV Course W4

2 700 m, 7 starting competitors
PlacNameOrganisationTimeDiffKm time
1Julie FlynnBG V18:236:48
2Jennifer MitchellDR V20:05+1:427:26
3Andrea SchiwyAL T21:40+3:178:01
4Margi FreemantleYV V23:25+5:028:40
5Kathryn KnightBK V26:52+8:299:57
6Suzanne OCallaghanBK V33:45+15:2212:29
7Rosalind KingDR V36:31+18:0813:31

OV Course M5

2 200 m, 8 starting competitors
PlacNameOrganisationTimeDiffKm time
1Warren KeyMF V12:505:49
2Peter DalwoodDR V17:54+5:048:08
3Tim DentYV V18:02+5:128:11
4Peter CusworthBK V18:11+5:218:15
5John MeekingYV V21:48+8:589:54
6Peter YeatesDR V22:12+9:2210:05
7David GoddardYV V28:35+15:4512:59
8Peter MaloneyNE V29:17+16:2713:18

OV Course W5

2 200 m, 10 starting competitors
PlacNameOrganisationTimeDiffKm time
1Jenelle TempletonAR V20:129:10
2Anne RobinsonBK V20:25+0:139:16
3Libby MeekingYV V21:32+1:209:47
4Ruth GoddardYV V24:47+4:3511:15
5Carolyn CusworthBK V24:55+4:4311:19
6Sheila CollsYV V26:44+6:3212:09
7Christine PalmerDR V28:11+7:5912:48
8Laurie NivenNE V28:57+8:4513:09
9Judy PrendergastEU V30:43+10:3113:57
Pamela KingDR Vdisqualified

OV Course M6

2 200 m, 13 starting competitors
PlacNameOrganisationTimeDiffKm time
1Mason ArthurMF V11:165:07
2Jensen KeyMF V11:42+0:265:19
3Torren ArthurMF V13:31+2:156:08
4Hadyn TangMF V14:29+3:136:34
5Callum WhiteYV V15:47+4:317:10
6Archie NeylonBG V16:14+4:587:22
7Wayne LoveDR V19:18+8:028:46
8Shawn MitchellDR V21:01+9:459:33
9James LoveDR V25:39+14:2311:39
10Jeff HughesNE V27:15+15:5912:23
11Ian BakerBK V31:28+20:1214:18
12John DempsterYV V59:22+48:0626:59
William DaveyMF Vmispunched

OV Course W6

2 200 m, 8 starting competitors
PlacNameOrganisationTimeDiffKm time
1Serryn EenjesBG V16:057:18
2Caitlyn SteerBG V18:46+2:418:31
3Judi HerkesBK V22:26+6:2110:11
4Jocelyn WattsYV V25:41+9:3611:40
5Eleanor WilliamsBG V26:40+10:3512:07
6Henriette KamanOV32:55+16:5014:57
7Jackie DempsterYV V35:47+19:4216:15
8Amber LouwDR V51:48+35:4323:32

OV Course M7

1 600 m, 1 starting competitor
PlacNameOrganisationTimeDiffKm time
1Daniel KamanDR V15:369:45

OV Course W7

1 600 m, 7 starting competitors
PlacNameOrganisationTimeDiffKm time
1Sophie TavernaCH V12:568:05
2Janet KingBK V14:18+1:228:56
3Wendy TavernaCH V16:44+3:4810:27
3Luca BogdanovitsDR V16:44+3:4810:27
5Arika BogdanovitsDR V20:15+7:1912:39
6Rosie SalvarisBK V23:50+10:5414:53
Nicole BaxterOVmispunched

OV Course M8

1 600 m, 1 starting competitor
PlacNameOrganisationTimeDiffKm time
1Ashley WhiteYV V12:147:38

OV Course W8

1 600 m, 2 starting competitors
PlacNameOrganisationTimeDiffKm time
1Claire AdamsBK V16:0510:03
2Pat MewsBK V17:11+1:0610:44

OV Course M9

1 600 m, 4 starting competitors
PlacNameOrganisationTimeDiffKm time
1Henry NeylonOV12:217:43
2Reynah TangOV13:21+1:008:20
3Evan GavensBK V23:45+11:2414:50
4Neo KozmaBK V33:44+21:2321:05

OV Course W9

1 600 m, 4 starting competitors
PlacNameOrganisationTimeDiffKm time
1Clementine NeylonOV15:429:48
2Angelina KozmaBK V23:18+7:3614:33
3Hannah AdamsBK V25:49+10:0716:08
4Joyce RowlandsNE V36:16+20:3422:40

Please report errors in the result list to the organiser.